Main page
METAR-TAF:

METAR-TAF

Airports :

Madrid–Torrejón Airport

Madrid-Torrejón, Spain

latitude: 40-29N, longitude: 003-27W, elevation: 607 m

Current weather observation

The report was made 28 minutes ago, at 21:00 UTC
Wind 6 kt from the Northeast
Temperature 1°C
Humidity 55%
Pressure 1026 hPa
Visibility 10 km or more
no clouds below 1500 m and no cumulonimbus

METAR: LETO 212100Z 04006KT CAVOK 01/M07 Q1026 NOSIG

Time: 22:28 (21:28 UTC)

Forecast

The report was made 4 hours and 28 minutes ago, at 17:00 UTC
Forecast valid from 21 at 18 UTC to 22 at 18 UTC
Wind 5 kt from the East/Northeast
Visibility 10 km or more
no clouds below 1500 m and no cumulonimbus
Probability 30% :
Temporary
from 22 at 03 UTC to 22 at 08 UTC
Broken clouds at a height of 1200 ft

TAF: LETO 211700Z 2118/2218 06005KT CAVOK TX09/2215Z TNM04/2208Z PROB30 TEMPO 2203/2208 BKN012

Weather observations and forecasts of more than 4000 airports (METAR and TAF reports).

The available stations are represented by yellow and red dots on the map.

Hover mouse over dot to see the name of the station.

Then click to see weather observations and forecasts.

To change the map : click on the green buttons with a black cross to zoom in, on the green button with a dash to zoom out, or on the green arrows for adjacent maps.


METAR-TAF: